Time;durP1;ratioP1;P1;durP2;ratioP2;P2;SDS_P1;SDS_P2;PMS_P1;PMS_P2;Temp;Humidity;BMP_temperature;BMP_pressure;BME280_temperature;BME280_humidity;BME280_pressure;Samples;Min_cycle;Max_cycle;Signal;HPM_P1;HPM_P2
2022/12/12 16:07:37;;;;;;;26.08;12.20;;;9.20;81.50;;;;;;6119075;23;20076;-77
2022/12/12 16:10:19;;;;;;;24.38;12.63;;;9.10;81.30;;;;;;6124210;23;20017;-78
2022/12/12 16:13:17;;;;;;;26.75;12.02;;;9.20;81.70;;;;;;6123646;23;20068;-79
2022/12/12 16:15:42;;;;;;;26.95;13.07;;;9.20;81.50;;;;;;6114128;23;20014;-79
2022/12/12 16:18:11;;;;;;;24.60;11.77;;;9.20;81.50;;;;;;6092371;23;20132;-78
2022/12/12 16:20:45;;;;;;;25.23;13.05;;;9.20;81.60;;;;;;6096573;23;20003;-77
2022/12/12 16:23:21;;;;;;;28.17;14.20;;;9.20;81.30;;;;;;6093873;23;20006;-77
2022/12/12 16:25:46;;;;;;;29.13;13.55;;;9.20;79.70;;;;;;6118181;23;20014;-81
2022/12/12 16:28:16;;;;;;;27.60;12.95;;;9.20;80.50;;;;;;6127206;23;20062;-82
2022/12/12 16:30:43;;;;;;;24.90;12.20;;;9.20;80.40;;;;;;6128695;23;20089;-82
2022/12/12 16:33:22;;;;;;;25.55;12.38;;;9.20;80.90;;;;;;6130431;23;20002;-81
2022/12/12 16:35:48;;;;;;;27.27;13.93;;;9.20;80.70;;;;;;6130700;23;20006;-82
2022/12/12 16:38:15;;;;;;;27.92;13.60;;;9.10;80.20;;;;;;6127761;23;20508;-81
2022/12/12 16:40:42;;;;;;;24.10;13.57;;;9.20;80.60;;;;;;6126745;23;20092;-83
2022/12/12 16:43:14;;;;;;;23.80;13.30;;;9.10;80.40;;;;;;6127559;23;20530;-81
2022/12/12 16:45:39;;;;;;;;;;;9.10;80.90;;;;;;6127409;23;20006;-81
2022/12/12 16:48:24;;;;;;;24.30;12.77;;;9.10;81.00;;;;;;6127659;23;19949;-87
2022/12/12 16:50:53;;;;;;;27.33;12.85;;;9.10;81.20;;;;;;6127280;23;20002;-82
2022/12/12 16:53:19;;;;;;;23.08;12.85;;;9.10;81.40;;;;;;6129544;23;20021;-81
2022/12/12 16:55:48;;;;;;;25.23;13.32;;;9.10;81.50;;;;;;6128227;23;20422;-80
2022/12/12 16:58:14;;;;;;;22.30;13.13;;;9.10;81.70;;;;;;6125966;23;20088;-83
2022/12/12 17:00:40;;;;;;;25.23;12.60;;;9.10;81.70;;;;;;6127033;23;20096;-82
2022/12/12 17:03:06;;;;;;;25.45;13.45;;;9.10;81.80;;;;;;6125505;23;20016;-81
2022/12/12 17:05:34;;;;;;;19.92;12.07;;;9.10;81.90;;;;;;6125804;23;20093;-81
2022/12/12 17:08:00;;;;;;;20.08;12.70;;;9.10;81.90;;;;;;6126246;23;20006;-81
2022/12/12 17:10:25;;;;;;;19.42;13.07;;;9.00;81.90;;;;;;6125754;23;20002;-81
2022/12/12 17:12:52;;;;;;;18.90;12.30;;;9.10;82.10;;;;;;6125754;23;20009;-81
2022/12/12 17:15:28;;;;;;;22.45;12.77;;;9.10;82.00;;;;;;6126840;23;19998;-81
2022/12/12 17:17:54;;;;;;;19.75;12.63;;;9.10;82.10;;;;;;6125046;23;20005;-80
2022/12/12 17:20:20;;;;;;;19.90;12.40;;;9.00;82.00;;;;;;6124993;23;20006;-81
2022/12/12 17:22:46;;;;;;;18.40;12.35;;;9.10;82.10;;;;;;6125193;23;19998;-82
2022/12/12 17:25:12;;;;;;;17.33;11.90;;;9.10;82.10;;;;;;6124259;23;20010;-80
2022/12/12 17:27:38;;;;;;;19.80;12.25;;;9.10;82.20;;;;;;6124177;23;20017;-79
2022/12/12 17:30:06;;;;;;;21.38;11.77;;;9.00;82.30;;;;;;6124435;23;20037;-80
2022/12/12 17:32:32;;;;;;;20.98;12.15;;;9.10;82.20;;;;;;6123922;23;20435;-81
2022/12/12 17:34:57;;;;;;;20.08;12.73;;;9.10;82.20;;;;;;6124076;23;20016;-81
2022/12/12 17:37:23;;;;;;;18.70;11.82;;;9.10;82.20;;;;;;6125676;23;20029;-82
2022/12/12 17:39:49;;;;;;;19.33;12.38;;;9.00;82.20;;;;;;6126358;23;20005;-79
2022/12/12 17:42:14;;;;;;;18.80;12.10;;;9.00;82.30;;;;;;6126357;23;20442;-78
2022/12/12 17:44:40;;;;;;;18.38;12.18;;;9.00;82.20;;;;;;6125772;23;20005;-80
2022/12/12 17:47:06;;;;;;;19.30;12.07;;;9.10;82.30;;;;;;6125839;23;20006;-79
2022/12/12 17:49:31;;;;;;;17.17;11.95;;;9.00;82.20;;;;;;6125193;23;20533;-79
2022/12/12 17:51:57;;;;;;;24.15;12.70;;;9.10;82.30;;;;;;6125520;23;20002;-80
2022/12/12 17:54:22;;;;;;;19.50;12.25;;;9.00;82.20;;;;;;6127801;23;20005;-78
2022/12/12 17:56:48;;;;;;;19.10;12.55;;;9.00;82.20;;;;;;6125393;23;20453;-80
2022/12/12 17:59:14;;;;;;;18.27;11.88;;;9.00;82.20;;;;;;6126960;23;20064;-80
2022/12/12 18:01:39;;;;;;;18.48;13.02;;;9.00;82.30;;;;;;6125717;23;20017;-80
2022/12/12 18:04:05;;;;;;;17.85;11.15;;;9.00;82.20;;;;;;6125233;23;20037;-78
2022/12/12 18:06:32;;;;;;;19.38;12.68;;;9.00;82.30;;;;;;6134378;23;20006;-82
2022/12/12 18:08:58;;;;;;;19.25;12.35;;;9.10;82.30;;;;;;6139127;23;20057;-83
2022/12/12 18:11:27;;;;;;;21.98;12.55;;;9.10;82.40;;;;;;6139791;23;20002;-86
2022/12/12 18:13:56;;;;;;;17.65;11.75;;;9.00;82.30;;;;;;6141760;23;20522;-86
2022/12/12 18:16:23;;;;;;;18.58;12.18;;;9.10;82.30;;;;;;6142371;23;20040;-85
2022/12/12 18:18:49;;;;;;;19.38;13.15;;;9.00;82.20;;;;;;6142432;23;20006;-87
2022/12/12 18:21:19;;;;;;;19.33;12.32;;;9.00;82.30;;;;;;6142168;23;20013;-85
2022/12/12 18:23:45;;;;;;;20.30;13.65;;;9.00;82.30;;;;;;6136232;23;20013;-85
2022/12/12 18:26:16;;;;;;;18.63;11.93;;;9.00;82.20;;;;;;6136902;23;20014;-82
2022/12/12 18:28:43;;;;;;;17.27;12.48;;;9.00;82.30;;;;;;6135585;23;20017;-84
2022/12/12 18:31:08;;;;;;;17.88;12.35;;;9.00;82.30;;;;;;6135297;23;20002;-81
2022/12/12 18:33:34;;;;;;;20.92;12.75;;;9.00;82.20;;;;;;6134441;23;20002;-83
2022/12/12 18:36:01;;;;;;;18.85;12.85;;;9.00;82.30;;;;;;6134037;23;20048;-80
2022/12/12 18:38:27;;;;;;;18.88;12.25;;;9.00;82.30;;;;;;6135440;23;20198;-84
2022/12/12 18:40:53;;;;;;;19.90;12.77;;;9.00;82.30;;;;;;6135726;23;20006;-86
2022/12/12 18:43:18;;;;;;;17.42;11.98;;;9.00;82.20;;;;;;6140715;23;20002;-86
2022/12/12 18:45:44;;;;;;;18.48;11.52;;;9.00;82.30;;;;;;6137317;23;20028;-84
2022/12/12 18:48:10;;;;;;;17.75;11.98;;;9.00;82.30;;;;;;6135827;23;20505;-84
2022/12/12 18:50:35;;;;;;;17.70;12.52;;;9.00;82.30;;;;;;6137226;23;19998;-83
2022/12/12 18:53:01;;;;;;;18.20;12.20;;;9.10;82.40;;;;;;6135705;23;19998;-84
2022/12/12 18:55:29;;;;;;;17.95;12.82;;;9.10;82.40;;;;;;6136761;23;19998;-85
2022/12/12 18:57:55;;;;;;;16.33;11.63;;;9.10;82.40;;;;;;6136034;23;20030;-85
2022/12/12 19:00:22;;;;;;;18.95;11.85;;;9.00;82.30;;;;;;6133821;23;20040;-84
2022/12/12 19:02:47;;;;;;;18.30;13.00;;;9.00;82.30;;;;;;6134445;23;20465;-84
2022/12/12 19:05:13;;;;;;;18.08;12.05;;;9.00;82.40;;;;;;6133561;23;20081;-83
2022/12/12 19:07:40;;;;;;;17.77;11.73;;;9.00;82.50;;;;;;6131954;23;20092;-85
2022/12/12 19:10:06;;;;;;;18.95;12.05;;;9.00;82.60;;;;;;6132300;23;20088;-84
2022/12/12 19:12:32;;;;;;;16.52;11.52;;;9.00;82.50;;;;;;6131422;23;20002;-84
2022/12/12 19:14:57;;;;;;;19.20;12.88;;;9.10;82.50;;;;;;6129825;23;20442;-84
2022/12/12 19:17:23;;;;;;;18.23;12.48;;;9.00;82.50;;;;;;6130309;23;20002;-84
2022/12/12 19:19:49;;;;;;;17.48;12.10;;;9.00;82.40;;;;;;6131205;23;20005;-84
2022/12/12 19:22:16;;;;;;;17.13;12.20;;;9.10;82.40;;;;;;6128510;23;20060;-84
2022/12/12 19:24:41;;;;;;;17.73;12.30;;;9.10;82.50;;;;;;6127246;23;20017;-84
2022/12/12 19:27:07;;;;;;;20.40;12.73;;;9.10;82.40;;;;;;6127840;23;20009;-85
2022/12/12 19:29:32;;;;;;;18.08;12.35;;;9.00;83.00;;;;;;6127231;23;20002;-81
2022/12/12 19:31:58;;;;;;;18.60;12.20;;;9.00;82.40;;;;;;6128144;23;20002;-85
2022/12/12 19:34:24;;;;;;;16.73;11.70;;;9.00;82.80;;;;;;6127982;23;20006;-85
2022/12/12 19:36:51;;;;;;;19.23;12.20;;;9.00;82.30;;;;;;6127700;23;20002;-86
2022/12/12 19:39:17;;;;;;;16.63;11.98;;;9.00;82.30;;;;;;6126787;23;20026;-85
2022/12/12 19:41:43;;;;;;;18.63;12.02;;;9.00;82.30;;;;;;6127452;23;20032;-85
2022/12/12 19:44:11;;;;;;;16.45;12.10;;;9.00;82.30;;;;;;6127687;23;20422;-84
2022/12/12 19:46:38;;;;;;;17.67;12.95;;;9.10;82.40;;;;;;6126771;23;20006;-83
2022/12/12 19:49:08;;;;;;;17.35;12.10;;;9.10;82.40;;;;;;6126507;23;20029;-85
2022/12/12 19:51:37;;;;;;;17.35;11.70;;;9.00;82.40;;;;;;6128605;23;20009;-82
2022/12/12 19:54:06;;;;;;;19.00;13.10;;;9.00;82.50;;;;;;6125982;23;20060;-83
2022/12/12 19:56:33;;;;;;;17.65;12.13;;;9.00;82.40;;;;;;6125812;23;20093;-84
2022/12/12 19:59:00;;;;;;;17.98;11.98;;;9.00;82.40;;;;;;6123943;23;20438;-83
2022/12/12 20:01:27;;;;;;;18.40;12.30;;;9.00;82.40;;;;;;6124842;23;20010;-83
2022/12/12 20:03:55;;;;;;;17.05;12.45;;;9.00;82.40;;;;;;6124797;23;20012;-83
2022/12/12 20:06:22;;;;;;;17.05;12.20;;;9.00;82.40;;;;;;6124532;23;20434;-84
2022/12/12 20:08:48;;;;;;;16.45;12.20;;;9.10;82.40;;;;;;6124599;23;20358;-85
2022/12/12 20:11:16;;;;;;;16.63;11.40;;;9.10;82.40;;;;;;6124633;23;20002;-83
2022/12/12 20:13:47;;;;;;;16.42;11.50;;;9.00;82.50;;;;;;6126740;23;20002;-83
2022/12/12 20:16:15;;;;;;;16.73;11.80;;;9.10;82.50;;;;;;6125344;23;20006;-83
2022/12/12 20:18:41;;;;;;;16.83;11.80;;;9.10;83.00;;;;;;6127214;23;20010;-83
2022/12/12 20:21:09;;;;;;;17.08;11.43;;;9.10;82.40;;;;;;6124895;23;20009;-82
2022/12/12 20:23:37;;;;;;;16.33;12.02;;;9.00;82.50;;;;;;6124631;23;20009;-83
2022/12/12 20:26:10;;;;;;;16.92;12.55;;;9.10;82.40;;;;;;6124646;23;20017;-81
2022/12/12 20:28:35;;;;;;;17.52;12.02;;;9.00;82.40;;;;;;6125855;23;20009;-83
2022/12/12 20:31:09;;;;;;;17.45;12.60;;;9.00;82.40;;;;;;6125049;23;20127;-83
2022/12/12 20:33:36;;;;;;;18.65;12.27;;;9.00;82.40;;;;;;6124793;23;20010;-83
2022/12/12 20:36:03;;;;;;;17.65;12.30;;;9.10;82.50;;;;;;6126790;23;20002;-82
2022/12/12 20:38:31;;;;;;;17.27;12.23;;;9.00;82.50;;;;;;6125054;23;20006;-84
2022/12/12 20:40:57;;;;;;;17.92;12.18;;;9.10;82.40;;;;;;6124842;23;20091;-86
2022/12/12 20:43:23;;;;;;;20.45;12.75;;;9.00;82.40;;;;;;6136961;23;20006;-87
2022/12/12 20:45:48;;;;;;;18.52;12.25;;;9.10;82.20;;;;;;6143940;23;20056;-86
2022/12/12 20:48:14;;;;;;;16.40;11.82;;;9.10;82.50;;;;;;6142786;23;20029;-86
2022/12/12 20:50:40;;;;;;;17.80;12.77;;;9.00;82.40;;;;;;6141875;23;20033;-87
2022/12/12 20:53:06;;;;;;;16.17;11.35;;;9.00;82.30;;;;;;6143801;23;20077;-85
2022/12/12 20:55:34;;;;;;;16.75;12.07;;;9.10;82.30;;;;;;6141230;23;20006;-85
2022/12/12 20:58:00;;;;;;;18.38;12.35;;;9.10;82.20;;;;;;6140721;23;20022;-84
2022/12/12 21:00:28;;;;;;;17.02;11.65;;;9.10;82.30;;;;;;6139546;23;20457;-85
2022/12/12 21:02:54;;;;;;;18.55;12.20;;;9.10;82.20;;;;;;6138182;23;20087;-86
2022/12/12 21:05:20;;;;;;;16.67;12.02;;;9.10;82.20;;;;;;6137325;23;20366;-84
2022/12/12 21:07:45;;;;;;;16.23;11.88;;;9.10;82.20;;;;;;6137009;23;20002;-84
2022/12/12 21:10:11;;;;;;;17.52;12.18;;;9.10;82.10;;;;;;6136258;23;20435;-85
2022/12/12 21:12:37;;;;;;;16.77;12.07;;;9.10;82.20;;;;;;6136664;23;20442;-86
2022/12/12 21:15:03;;;;;;;16.67;11.50;;;9.10;82.10;;;;;;6136785;23;20002;-84
2022/12/12 21:17:29;;;;;;;16.95;11.73;;;9.10;82.10;;;;;;6136408;23;20057;-83
2022/12/12 21:19:54;;;;;;;16.63;12.52;;;9.10;82.20;;;;;;6134842;23;20030;-86
2022/12/12 21:22:20;;;;;;;16.77;12.10;;;9.10;82.20;;;;;;6136019;23;20089;-82
2022/12/12 21:24:46;;;;;;;16.10;11.68;;;9.10;82.30;;;;;;6135413;23;20387;-85
2022/12/12 21:27:11;;;;;;;16.85;11.88;;;9.10;82.40;;;;;;6136140;23;20006;-87
2022/12/12 21:29:37;;;;;;;17.42;12.13;;;9.10;82.40;;;;;;6132885;23;20010;-86
2022/12/12 21:32:03;;;;;;;17.58;12.65;;;9.00;82.30;;;;;;6130481;23;20009;-83
2022/12/12 21:34:29;;;;;;;16.98;12.25;;;9.00;82.20;;;;;;6134331;23;19998;-85
2022/12/12 21:36:54;;;;;;;17.63;12.38;;;9.00;82.30;;;;;;6133206;23;20038;-86
2022/12/12 21:39:26;;;;;;;17.27;12.45;;;9.00;82.40;;;;;;6132751;23;20502;-85
2022/12/12 21:41:52;;;;;;;;;;;9.00;82.30;;;;;;6133153;23;20498;-85
2022/12/12 21:44:19;;;;;;;18.13;12.18;;;9.00;82.40;;;;;;6132223;23;19947;-85
2022/12/12 21:46:44;;;;;;;17.63;12.73;;;8.90;82.50;;;;;;6133597;23;20012;-85
2022/12/12 21:49:25;;;;;;;18.45;12.20;;;9.00;82.40;;;;;;6131476;23;20033;-85
2022/12/12 21:51:54;;;;;;;18.10;12.20;;;9.00;82.50;;;;;;6132011;23;20002;-84
2022/12/12 21:54:21;;;;;;;16.23;11.90;;;9.10;82.50;;;;;;6130454;23;20002;-85
2022/12/12 21:56:47;;;;;;;17.45;12.77;;;9.00;82.50;;;;;;6131115;23;20088;-85
2022/12/12 21:59:13;;;;;;;16.67;11.63;;;9.00;82.50;;;;;;6129779;23;20006;-84
2022/12/12 22:01:41;;;;;;;17.52;12.20;;;9.00;82.50;;;;;;6131403;23;20006;-85
2022/12/12 22:04:06;;;;;;;17.20;12.40;;;9.00;82.50;;;;;;6129831;23;20010;-86
2022/12/12 22:06:34;;;;;;;17.02;12.18;;;9.00;82.50;;;;;;6128709;23;20084;-85
2022/12/12 22:09:02;;;;;;;20.10;13.10;;;9.00;82.50;;;;;;6129241;23;20009;-86
2022/12/12 22:11:30;;;;;;;17.45;12.15;;;9.00;82.50;;;;;;6131345;23;20013;-85
2022/12/12 22:13:56;;;;;;;17.15;12.23;;;9.00;82.80;;;;;;6129911;23;20012;-84
2022/12/12 22:16:21;;;;;;;17.10;12.52;;;9.00;82.50;;;;;;6128717;23;20002;-84
2022/12/12 22:18:49;;;;;;;16.98;12.60;;;8.90;82.60;;;;;;6128270;23;20010;-83
2022/12/12 22:21:18;;;;;;;19.05;13.30;;;9.00;82.50;;;;;;6128085;23;20006;-85
2022/12/12 22:23:45;;;;;;;18.15;13.18;;;9.00;82.50;;;;;;6128157;23;20021;-85
2022/12/12 22:26:33;;;;;;;17.23;12.57;;;9.00;82.50;;;;;;6130914;23;20044;-80
2022/12/12 22:29:00;;;;;;;18.52;12.77;;;9.00;82.60;;;;;;6133553;23;20010;-80
2022/12/12 22:31:31;;;;;;;17.23;12.85;;;8.90;83.00;;;;;;6133730;23;20505;-80
2022/12/12 22:33:59;;;;;;;19.05;13.02;;;8.90;82.40;;;;;;6132716;23;20036;-81
2022/12/12 22:36:27;;;;;;;18.63;13.07;;;9.00;82.50;;;;;;6133870;23;20419;-79
2022/12/12 22:38:53;;;;;;;19.50;13.60;;;8.90;82.50;;;;;;6132681;23;20012;-79
2022/12/12 22:41:20;;;;;;;18.27;13.50;;;9.00;82.50;;;;;;6131745;23;20446;-80
2022/12/12 22:43:45;;;;;;;17.55;12.40;;;8.90;82.40;;;;;;6129739;23;20010;-80
2022/12/12 22:46:11;;;;;;;18.05;12.48;;;9.00;82.50;;;;;;6132165;23;20041;-80
2022/12/12 22:48:36;;;;;;;17.88;12.60;;;8.90;82.40;;;;;;6131874;23;20013;-80
2022/12/12 22:51:17;;;;;;;17.75;13.00;;;9.00;82.70;;;;;;6132142;23;20025;-79
2022/12/12 22:53:43;;;;;;;18.17;12.80;;;9.00;82.50;;;;;;6131396;23;19998;-80
2022/12/12 22:56:09;;;;;;;17.65;12.98;;;8.90;82.40;;;;;;6130916;23;20013;-80
2022/12/12 22:58:34;;;;;;;17.30;13.07;;;8.90;82.40;;;;;;6137144;23;20012;-81
2022/12/12 23:01:21;;;;;;;18.13;13.55;;;9.00;82.40;;;;;;6136205;23;20006;-79
2022/12/12 23:03:47;;;;;;;18.73;13.63;;;9.00;82.50;;;;;;6136051;23;20002;-80
2022/12/12 23:06:15;;;;;;;18.85;14.05;;;8.90;82.40;;;;;;6136256;23;20427;-80
2022/12/12 23:08:41;;;;;;;17.95;12.93;;;8.90;82.40;;;;;;6135983;23;20005;-79
2022/12/12 23:11:12;;;;;;;18.67;13.40;;;8.90;82.30;;;;;;6133184;23;20002;-79
2022/12/12 23:13:42;;;;;;;18.77;13.55;;;8.90;82.30;;;;;;6136162;23;20025;-80
2022/12/12 23:16:13;;;;;;;18.73;13.73;;;9.00;82.40;;;;;;6133388;23;20013;-80
2022/12/12 23:18:39;;;;;;;17.70;12.95;;;8.90;82.40;;;;;;6133781;23;20006;-78
2022/12/12 23:21:07;;;;;;;19.13;13.63;;;8.90;82.50;;;;;;6133793;23;20006;-80
2022/12/12 23:23:33;;;;;;;18.63;13.30;;;8.90;82.40;;;;;;6134732;23;20508;-80
2022/12/12 23:26:01;;;;;;;17.50;12.88;;;8.90;82.40;;;;;;6131785;23;20024;-81
2022/12/12 23:28:27;;;;;;;17.52;12.82;;;9.00;82.40;;;;;;6131667;23;20006;-80
2022/12/12 23:30:52;;;;;;;18.65;13.00;;;8.90;82.90;;;;;;6132327;23;20056;-80
2022/12/12 23:33:18;;;;;;;16.83;12.75;;;8.90;82.40;;;;;;6133743;23;20002;-81
2022/12/12 23:35:47;;;;;;;18.77;13.20;;;9.00;82.40;;;;;;6133783;23;20046;-79
2022/12/12 23:38:13;;;;;;;18.60;13.27;;;8.90;82.30;;;;;;6133440;23;20026;-79
2022/12/12 23:40:39;;;;;;;17.27;12.30;;;9.00;82.40;;;;;;6130912;23;20315;-79
2022/12/12 23:43:04;;;;;;;19.23;13.73;;;8.90;82.40;;;;;;6130981;23;20394;-79
2022/12/12 23:45:30;;;;;;;18.00;13.15;;;9.00;82.40;;;;;;6132036;23;20006;-79
2022/12/12 23:47:56;;;;;;;18.60;13.20;;;8.90;82.30;;;;;;6130731;23;20583;-79
2022/12/12 23:50:21;;;;;;;20.00;14.20;;;8.90;82.30;;;;;;6130863;23;20057;-79
2022/12/12 23:52:47;;;;;;;18.13;13.30;;;9.00;82.40;;;;;;6130673;23;20014;-80
2022/12/12 23:55:12;;;;;;;17.05;12.70;;;8.90;82.20;;;;;;6130598;23;20009;-80
2022/12/12 23:57:38;;;;;;;17.50;13.35;;;9.00;82.40;;;;;;6131109;23;20009;-79
